sensor_id;sensor_type;location;lat;lon;timestamp;pressure;altitude;pressure_sealevel;temperature;humidity
18819;BME280;9537;45.594;9.294;2023-04-28T00:00:54;99955.78;;;14.12;65.72
18819;BME280;9537;45.594;9.294;2023-04-28T00:02:01;99954.97;;;14.12;65.18
18819;BME280;9537;45.594;9.294;2023-04-28T00:03:08;99954.53;;;14.08;65.30
18819;BME280;9537;45.594;9.294;2023-04-28T00:04:14;99954.72;;;14.07;65.27
18819;BME280;9537;45.594;9.294;2023-04-28T00:05:21;99955.72;;;14.06;65.23
18819;BME280;9537;45.594;9.294;2023-04-28T00:06:27;99949.78;;;14.04;64.92
18819;BME280;9537;45.594;9.294;2023-04-28T00:07:35;99952.63;;;14.02;65.04
18819;BME280;9537;45.594;9.294;2023-04-28T00:08:41;99957.09;;;14.02;65.25
18819;BME280;9537;45.594;9.294;2023-04-28T00:09:48;99952.53;;;13.95;65.47
18819;BME280;9537;45.594;9.294;2023-04-28T00:10:54;99956.88;;;13.96;65.43
18819;BME280;9537;45.594;9.294;2023-04-28T00:12:01;99956.22;;;13.94;65.38
18819;BME280;9537;45.594;9.294;2023-04-28T00:13:08;99955.78;;;13.91;66.17
18819;BME280;9537;45.594;9.294;2023-04-28T00:14:15;99954.94;;;13.90;66.01
18819;BME280;9537;45.594;9.294;2023-04-28T00:15:23;99955.31;;;13.87;66.46
18819;BME280;9537;45.594;9.294;2023-04-28T00:16:30;99962.72;;;13.92;66.34
18819;BME280;9537;45.594;9.294;2023-04-28T00:17:36;99957.78;;;13.89;65.74
18819;BME280;9537;45.594;9.294;2023-04-28T00:18:43;99962.28;;;13.88;65.74
18819;BME280;9537;45.594;9.294;2023-04-28T00:19:49;99962.47;;;13.87;66.19
18819;BME280;9537;45.594;9.294;2023-04-28T00:20:56;99958.97;;;13.86;66.00
18819;BME280;9537;45.594;9.294;2023-04-28T00:22:02;99956.50;;;13.85;66.23
18819;BME280;9537;45.594;9.294;2023-04-28T00:23:09;99948.38;;;13.86;65.79
18819;BME280;9537;45.594;9.294;2023-04-28T00:24:15;99952.66;;;13.87;65.59
18819;BME280;9537;45.594;9.294;2023-04-28T00:25:22;99943.50;;;13.90;65.87
18819;BME280;9537;45.594;9.294;2023-04-28T00:26:28;99946.97;;;13.90;65.37
18819;BME280;9537;45.594;9.294;2023-04-28T00:27:35;99951.47;;;13.90;65.82
18819;BME280;9537;45.594;9.294;2023-04-28T00:28:41;99948.81;;;13.90;65.71
18819;BME280;9537;45.594;9.294;2023-04-28T00:29:48;99946.78;;;13.92;65.54
18819;BME280;9537;45.594;9.294;2023-04-28T00:30:56;99945.97;;;13.91;65.76
18819;BME280;9537;45.594;9.294;2023-04-28T00:32:03;99949.88;;;13.95;65.63
18819;BME280;9537;45.594;9.294;2023-04-28T00:33:09;99952.38;;;13.97;65.42
18819;BME280;9537;45.594;9.294;2023-04-28T00:34:16;99948.69;;;13.98;65.53
18819;BME280;9537;45.594;9.294;2023-04-28T00:35:22;99950.63;;;13.89;65.91
18819;BME280;9537;45.594;9.294;2023-04-28T00:36:28;99949.38;;;13.85;66.20
18819;BME280;9537;45.594;9.294;2023-04-28T00:37:35;99942.41;;;13.84;66.27
18819;BME280;9537;45.594;9.294;2023-04-28T00:38:42;99943.00;;;13.80;66.25
18819;BME280;9537;45.594;9.294;2023-04-28T00:39:48;99944.44;;;13.82;66.16
18819;BME280;9537;45.594;9.294;2023-04-28T00:40:55;99946.47;;;13.80;65.94
18819;BME280;9537;45.594;9.294;2023-04-28T00:42:01;99941.53;;;13.77;66.25
18819;BME280;9537;45.594;9.294;2023-04-28T00:43:08;99947.81;;;13.76;66.13
18819;BME280;9537;45.594;9.294;2023-04-28T00:44:14;99953.50;;;13.73;66.38
18819;BME280;9537;45.594;9.294;2023-04-28T00:45:16;99946.50;;;13.65;66.77
18819;BME280;9537;45.594;9.294;2023-04-28T00:46:27;99946.66;;;13.64;67.04
18819;BME280;9537;45.594;9.294;2023-04-28T00:47:36;99947.69;;;13.63;67.37
18819;BME280;9537;45.594;9.294;2023-04-28T00:48:42;99942.09;;;13.58;67.14
18819;BME280;9537;45.594;9.294;2023-04-28T00:49:49;99943.28;;;13.55;67.21
18819;BME280;9537;45.594;9.294;2023-04-28T00:50:55;99942.09;;;13.58;66.96
18819;BME280;9537;45.594;9.294;2023-04-28T00:52:04;99940.84;;;13.54;67.25
18819;BME280;9537;45.594;9.294;2023-04-28T00:53:12;99932.22;;;13.51;66.88
18819;BME280;9537;45.594;9.294;2023-04-28T00:54:19;99935.25;;;13.48;67.11
18819;BME280;9537;45.594;9.294;2023-04-28T00:55:27;99937.91;;;13.48;66.89
18819;BME280;9537;45.594;9.294;2023-04-28T00:56:37;99941.38;;;13.49;67.04
18819;BME280;9537;45.594;9.294;2023-04-28T00:57:44;99934.25;;;13.49;66.76
18819;BME280;9537;45.594;9.294;2023-04-28T00:58:51;99931.59;;;13.49;67.06
18819;BME280;9537;45.594;9.294;2023-04-28T00:59:57;99929.94;;;13.48;67.07
18819;BME280;9537;45.594;9.294;2023-04-28T01:01:05;99929.31;;;13.46;67.39
18819;BME280;9537;45.594;9.294;2023-04-28T01:02:14;99925.38;;;13.42;67.44
18819;BME280;9537;45.594;9.294;2023-04-28T01:03:23;99930.69;;;13.42;67.47
18819;BME280;9537;45.594;9.294;2023-04-28T01:04:29;99927.66;;;13.45;67.35
18819;BME280;9537;45.594;9.294;2023-04-28T01:05:36;99926.22;;;13.43;67.37
18819;BME280;9537;45.594;9.294;2023-04-28T01:06:42;99925.38;;;13.42;67.86
18819;BME280;9537;45.594;9.294;2023-04-28T01:07:50;99927.38;;;13.40;68.07
18819;BME280;9537;45.594;9.294;2023-04-28T01:08:57;99927.75;;;13.37;68.04
18819;BME280;9537;45.594;9.294;2023-04-28T01:10:04;99925.47;;;13.34;68.27
18819;BME280;9537;45.594;9.294;2023-04-28T01:11:11;99928.31;;;13.33;68.85
18819;BME280;9537;45.594;9.294;2023-04-28T01:12:18;99932.34;;;13.28;69.53
18819;BME280;9537;45.594;9.294;2023-04-28T01:13:25;99928.22;;;13.26;69.20
18819;BME280;9537;45.594;9.294;2023-04-28T01:14:32;99924.06;;;13.23;69.28
18819;BME280;9537;45.594;9.294;2023-04-28T01:15:39;99923.25;;;13.23;68.96
18819;BME280;9537;45.594;9.294;2023-04-28T01:16:45;99921.25;;;13.25;69.62
18819;BME280;9537;45.594;9.294;2023-04-28T01:17:54;99918.94;;;13.22;69.32
18819;BME280;9537;45.594;9.294;2023-04-28T01:19:00;99922.59;;;13.21;68.54
18819;BME280;9537;45.594;9.294;2023-04-28T01:20:08;99916.78;;;13.11;68.79
18819;BME280;9537;45.594;9.294;2023-04-28T01:21:24;99917.09;;;13.07;68.89
18819;BME280;9537;45.594;9.294;2023-04-28T01:22:33;99920.78;;;13.06;69.30
18819;BME280;9537;45.594;9.294;2023-04-28T01:23:39;99919.59;;;13.09;68.95
18819;BME280;9537;45.594;9.294;2023-04-28T01:24:43;99918.50;;;13.03;69.76
18819;BME280;9537;45.594;9.294;2023-04-28T01:25:49;99921.16;;;13.03;69.81
18819;BME280;9537;45.594;9.294;2023-04-28T01:26:56;99919.16;;;13.05;70.23
18819;BME280;9537;45.594;9.294;2023-04-28T01:28:02;99925.53;;;13.11;69.90
18819;BME280;9537;45.594;9.294;2023-04-28T01:29:09;99920.41;;;13.10;69.96
18819;BME280;9537;45.594;9.294;2023-04-28T01:30:15;99933.03;;;13.07;70.55
18819;BME280;9537;45.594;9.294;2023-04-28T01:31:22;99931.75;;;13.03;70.53
18819;BME280;9537;45.594;9.294;2023-04-28T01:32:28;99935.94;;;12.98;70.21
18819;BME280;9537;45.594;9.294;2023-04-28T01:33:35;99931.81;;;12.95;70.15
18819;BME280;9537;45.594;9.294;2023-04-28T01:34:41;99925.25;;;12.91;70.39
18819;BME280;9537;45.594;9.294;2023-04-28T01:35:48;99929.09;;;12.89;70.07
18819;BME280;9537;45.594;9.294;2023-04-28T01:36:54;99934.69;;;12.94;70.33
18819;BME280;9537;45.594;9.294;2023-04-28T01:38:01;99933.00;;;12.93;69.99
18819;BME280;9537;45.594;9.294;2023-04-28T01:39:07;99933.38;;;12.90;70.31
18819;BME280;9537;45.594;9.294;2023-04-28T01:40:16;99937.56;;;12.84;70.21
18819;BME280;9537;45.594;9.294;2023-04-28T01:41:22;99945.53;;;12.84;70.12
18819;BME280;9537;45.594;9.294;2023-04-28T01:42:29;99939.78;;;12.80;70.46
18819;BME280;9537;45.594;9.294;2023-04-28T01:43:35;99947.56;;;12.82;70.55
18819;BME280;9537;45.594;9.294;2023-04-28T01:44:42;99931.66;;;12.82;70.34
18819;BME280;9537;45.594;9.294;2023-04-28T01:45:48;99943.88;;;12.83;70.71
18819;BME280;9537;45.594;9.294;2023-04-28T01:46:55;99938.94;;;12.80;70.85
18819;BME280;9537;45.594;9.294;2023-04-28T01:48:01;99934.47;;;12.80;70.92
18819;BME280;9537;45.594;9.294;2023-04-28T01:49:08;99940.59;;;12.81;70.72
18819;BME280;9537;45.594;9.294;2023-04-28T01:50:14;99945.06;;;12.80;70.72
18819;BME280;9537;45.594;9.294;2023-04-28T01:51:21;99940.13;;;12.77;71.08
18819;BME280;9537;45.594;9.294;2023-04-28T01:52:27;99937.84;;;12.74;70.81
18819;BME280;9537;45.594;9.294;2023-04-28T01:53:34;99944.50;;;12.70;70.92
18819;BME280;9537;45.594;9.294;2023-04-28T01:54:40;99943.22;;;12.66;71.25
18819;BME280;9537;45.594;9.294;2023-04-28T01:55:48;99943.38;;;12.65;71.09
18819;BME280;9537;45.594;9.294;2023-04-28T01:56:54;99942.75;;;12.62;71.35
18819;BME280;9537;45.594;9.294;2023-04-28T01:58:01;99939.91;;;12.64;71.23
18819;BME280;9537;45.594;9.294;2023-04-28T01:59:07;99947.56;;;12.59;71.42
18819;BME280;9537;45.594;9.294;2023-04-28T02:00:14;99950.41;;;12.57;71.26
18819;BME280;9537;45.594;9.294;2023-04-28T02:01:20;99950.88;;;12.61;70.92
18819;BME280;9537;45.594;9.294;2023-04-28T02:02:28;99956.81;;;12.63;70.50
18819;BME280;9537;45.594;9.294;2023-04-28T02:03:34;99958.47;;;12.64;70.61
18819;BME280;9537;45.594;9.294;2023-04-28T02:04:41;99959.84;;;12.60;70.92
18819;BME280;9537;45.594;9.294;2023-04-28T02:05:47;99956.88;;;12.55;71.01
18819;BME280;9537;45.594;9.294;2023-04-28T02:06:53;99963.00;;;12.55;71.20
18819;BME280;9537;45.594;9.294;2023-04-28T02:07:59;99967.47;;;12.55;70.87
18819;BME280;9537;45.594;9.294;2023-04-28T02:09:06;99972.13;;;12.53;70.94
18819;BME280;9537;45.594;9.294;2023-04-28T02:10:13;99967.47;;;12.55;71.09
18819;BME280;9537;45.594;9.294;2023-04-28T02:11:21;99965.84;;;12.54;70.67
18819;BME280;9537;45.594;9.294;2023-04-28T02:12:27;99970.03;;;12.48;70.94
18819;BME280;9537;45.594;9.294;2023-04-28T02:13:34;99974.66;;;12.46;71.06
18819;BME280;9537;45.594;9.294;2023-04-28T02:14:40;99971.09;;;12.39;71.07
18819;BME280;9537;45.594;9.294;2023-04-28T02:15:47;99966.13;;;12.36;71.33
18819;BME280;9537;45.594;9.294;2023-04-28T02:16:53;99967.13;;;12.35;71.17
18819;BME280;9537;45.594;9.294;2023-04-28T02:18:00;99964.50;;;12.35;71.29
18819;BME280;9537;45.594;9.294;2023-04-28T02:19:06;99961.69;;;12.36;71.37
18819;BME280;9537;45.594;9.294;2023-04-28T02:20:13;99972.53;;;12.42;71.21
18819;BME280;9537;45.594;9.294;2023-04-28T02:21:19;99971.09;;;12.39;71.44
18819;BME280;9537;45.594;9.294;2023-04-28T02:22:26;99968.25;;;12.40;71.63
18819;BME280;9537;45.594;9.294;2023-04-28T02:23:32;99971.91;;;12.39;71.90
18819;BME280;9537;45.594;9.294;2023-04-28T02:24:39;99963.47;;;12.36;71.65
18819;BME280;9537;45.594;9.294;2023-04-28T02:25:45;99971.16;;;12.31;72.20
18819;BME280;9537;45.594;9.294;2023-04-28T02:26:53;99965.00;;;12.30;72.09
18819;BME280;9537;45.594;9.294;2023-04-28T02:27:59;99972.13;;;12.30;72.09
18819;BME280;9537;45.594;9.294;2023-04-28T02:29:06;99971.84;;;12.25;72.19
18819;BME280;9537;45.594;9.294;2023-04-28T02:30:13;99975.13;;;12.27;72.06
18819;BME280;9537;45.594;9.294;2023-04-28T02:31:19;99973.50;;;12.26;72.22
18819;BME280;9537;45.594;9.294;2023-04-28T02:32:26;99974.31;;;12.26;72.09
18819;BME280;9537;45.594;9.294;2023-04-28T02:33:32;99979.81;;;12.25;71.94
18819;BME280;9537;45.594;9.294;2023-04-28T02:34:39;99970.06;;;12.17;72.41
18819;BME280;9537;45.594;9.294;2023-04-28T02:35:45;99975.84;;;12.21;72.31
18819;BME280;9537;45.594;9.294;2023-04-28T02:36:53;99975.03;;;12.20;72.38
18819;BME280;9537;45.594;9.294;2023-04-28T02:37:59;99973.38;;;12.19;72.45
18819;BME280;9537;45.594;9.294;2023-04-28T02:39:06;99974.84;;;12.22;72.45
18819;BME280;9537;45.594;9.294;2023-04-28T02:40:12;99967.25;;;12.18;72.74
18819;BME280;9537;45.594;9.294;2023-04-28T02:41:19;99965.25;;;12.21;72.91
18819;BME280;9537;45.594;9.294;2023-04-28T02:42:27;99968.56;;;12.23;72.53
18819;BME280;9537;45.594;9.294;2023-04-28T02:43:34;99964.91;;;12.24;72.67
18819;BME280;9537;45.594;9.294;2023-04-28T02:44:40;99964.25;;;12.22;72.69
18819;BME280;9537;45.594;9.294;2023-04-28T02:45:47;99959.59;;;12.24;72.48
18819;BME280;9537;45.594;9.294;2023-04-28T02:46:53;99958.13;;;12.21;72.28
18819;BME280;9537;45.594;9.294;2023-04-28T02:48:00;99953.31;;;12.25;72.25
18819;BME280;9537;45.594;9.294;2023-04-28T02:49:08;99952.66;;;12.23;71.83
18819;BME280;9537;45.594;9.294;2023-04-28T02:50:15;99947.38;;;12.23;71.70
18819;BME280;9537;45.594;9.294;2023-04-28T02:51:20;99941.88;;;12.24;71.47
18819;BME280;9537;45.594;9.294;2023-04-28T02:52:27;99939.44;;;12.23;71.62
18819;BME280;9537;45.594;9.294;2023-04-28T02:53:33;99948.84;;;12.25;71.46
18819;BME280;9537;45.594;9.294;2023-04-28T02:54:40;99938.41;;;12.24;71.45
18819;BME280;9537;45.594;9.294;2023-04-28T02:55:46;99940.91;;;12.25;71.49
18819;BME280;9537;45.594;9.294;2023-04-28T02:56:53;99937.75;;;12.22;71.26
18819;BME280;9537;45.594;9.294;2023-04-28T02:58:01;99931.63;;;12.21;71.17
18819;BME280;9537;45.594;9.294;2023-04-28T02:59:08;99937.94;;;12.20;71.27
18819;BME280;9537;45.594;9.294;2023-04-28T03:00:15;99938.78;;;12.21;71.48
18819;BME280;9537;45.594;9.294;2023-04-28T03:01:21;99929.34;;;12.18;71.49
18819;BME280;9537;45.594;9.294;2023-04-28T03:02:28;99940.28;;;12.15;71.17
18819;BME280;9537;45.594;9.294;2023-04-28T03:03:34;99928.22;;;12.12;71.31
18819;BME280;9537;45.594;9.294;2023-04-28T03:04:41;99926.28;;;12.06;71.34
18819;BME280;9537;45.594;9.294;2023-04-28T03:05:47;99938.50;;;12.07;71.57
18819;BME280;9537;45.594;9.294;2023-04-28T03:06:54;99933.56;;;12.04;71.50
18819;BME280;9537;45.594;9.294;2023-04-28T03:08:00;99933.09;;;12.01;71.58
18819;BME280;9537;45.594;9.294;2023-04-28T03:09:08;99939.41;;;12.00;71.80
18819;BME280;9537;45.594;9.294;2023-04-28T03:10:14;99926.19;;;12.00;71.91
18819;BME280;9537;45.594;9.294;2023-04-28T03:11:21;99931.00;;;11.96;71.99
18819;BME280;9537;45.594;9.294;2023-04-28T03:12:27;99928.69;;;11.93;71.74
18819;BME280;9537;45.594;9.294;2023-04-28T03:13:36;99913.81;;;11.92;71.89
18819;BME280;9537;45.594;9.294;2023-04-28T03:14:42;99917.47;;;11.91;72.08
18819;BME280;9537;45.594;9.294;2023-04-28T03:15:49;99917.09;;;11.94;71.87
18819;BME280;9537;45.594;9.294;2023-04-28T03:16:55;99919.09;;;11.92;72.20
18819;BME280;9537;45.594;9.294;2023-04-28T03:18:02;99914.47;;;11.94;72.25
18819;BME280;9537;45.594;9.294;2023-04-28T03:19:08;99919.41;;;11.97;71.79
18819;BME280;9537;45.594;9.294;2023-04-28T03:20:15;99912.28;;;11.98;71.71
18819;BME280;9537;45.594;9.294;2023-04-28T03:21:21;99914.09;;;11.97;72.02
18819;BME280;9537;45.594;9.294;2023-04-28T03:22:29;99915.78;;;11.90;72.19
18819;BME280;9537;45.594;9.294;2023-04-28T03:23:34;99927.38;;;11.89;72.24
18819;BME280;9537;45.594;9.294;2023-04-28T03:24:41;99930.19;;;11.87;72.35
18819;BME280;9537;45.594;9.294;2023-04-28T03:25:47;99932.84;;;11.87;72.37
18819;BME280;9537;45.594;9.294;2023-04-28T03:26:55;99942.94;;;11.84;72.49
18819;BME280;9537;45.594;9.294;2023-04-28T03:28:01;99940.97;;;11.78;72.42
18819;BME280;9537;45.594;9.294;2023-04-28T03:29:04;99945.25;;;11.79;72.83
18819;BME280;9537;45.594;9.294;2023-04-28T03:30:11;99943.63;;;11.78;72.93
18819;BME280;9537;45.594;9.294;2023-04-28T03:31:18;99945.94;;;11.81;72.89
18819;BME280;9537;45.594;9.294;2023-04-28T03:32:24;99934.38;;;11.82;72.82
18819;BME280;9537;45.594;9.294;2023-04-28T03:33:31;99946.13;;;11.79;72.52
18819;BME280;9537;45.594;9.294;2023-04-28T03:34:38;99947.25;;;11.85;72.87
18819;BME280;9537;45.594;9.294;2023-04-28T03:35:46;99950.75;;;11.85;72.75
18819;BME280;9537;45.594;9.294;2023-04-28T03:36:52;99951.22;;;11.89;72.54
18819;BME280;9537;45.594;9.294;2023-04-28T03:37:59;99944.75;;;11.91;72.53
18819;BME280;9537;45.594;9.294;2023-04-28T03:39:05;99954.69;;;11.89;72.54
18819;BME280;9537;45.594;9.294;2023-04-28T03:40:12;99949.91;;;11.85;72.87
18819;BME280;9537;45.594;9.294;2023-04-28T03:41:18;99950.25;;;11.82;72.88
18819;BME280;9537;45.594;9.294;2023-04-28T03:42:25;99955.84;;;11.79;73.16
18819;BME280;9537;45.594;9.294;2023-04-28T03:43:31;99957.06;;;11.76;73.45
18819;BME280;9537;45.594;9.294;2023-04-28T03:44:41;99962.19;;;11.69;73.74
18819;BME280;9537;45.594;9.294;2023-04-28T03:45:47;99962.53;;;11.66;73.74
18819;BME280;9537;45.594;9.294;2023-04-28T03:46:54;99967.00;;;11.66;73.92
18819;BME280;9537;45.594;9.294;2023-04-28T03:48:00;99963.69;;;11.64;74.01
18819;BME280;9537;45.594;9.294;2023-04-28T03:49:07;99957.13;;;11.60;74.38
18819;BME280;9537;45.594;9.294;2023-04-28T03:50:13;99959.09;;;11.58;74.87
18819;BME280;9537;45.594;9.294;2023-04-28T03:51:20;99962.09;;;11.55;75.13
18819;BME280;9537;45.594;9.294;2023-04-28T03:52:25;99956.66;;;11.56;75.46
18819;BME280;9537;45.594;9.294;2023-04-28T03:53:33;99947.72;;;11.49;75.60
18819;BME280;9537;45.594;9.294;2023-04-28T03:54:39;99947.69;;;11.57;75.42
18819;BME280;9537;45.594;9.294;2023-04-28T03:55:47;99941.06;;;11.61;75.12
18819;BME280;9537;45.594;9.294;2023-04-28T03:56:53;99943.69;;;11.61;75.09
18819;BME280;9537;45.594;9.294;2023-04-28T03:58:00;99950.31;;;11.65;75.10
18819;BME280;9537;45.594;9.294;2023-04-28T03:59:06;99949.16;;;11.68;75.12
18819;BME280;9537;45.594;9.294;2023-04-28T04:00:18;99945.34;;;11.70;74.96
18819;BME280;9537;45.594;9.294;2023-04-28T04:01:24;99935.56;;;11.71;75.01
18819;BME280;9537;45.594;9.294;2023-04-28T04:02:31;99941.34;;;11.75;74.84
18819;BME280;9537;45.594;9.294;2023-04-28T04:03:36;99945.97;;;11.72;74.97
18819;BME280;9537;45.594;9.294;2023-04-28T04:04:39;99945.63;;;11.76;74.85
18819;BME280;9537;45.594;9.294;2023-04-28T04:05:45;99949.28;;;11.75;74.74
18819;BME280;9537;45.594;9.294;2023-04-28T04:06:52;99948.44;;;11.74;74.66
18819;BME280;9537;45.594;9.294;2023-04-28T04:07:58;99946.16;;;11.71;74.83
18819;BME280;9537;45.594;9.294;2023-04-28T04:09:06;99943.16;;;11.74;74.54
18819;BME280;9537;45.594;9.294;2023-04-28T04:10:12;99937.06;;;11.73;74.50
18819;BME280;9537;45.594;9.294;2023-04-28T04:11:20;99938.69;;;11.75;74.38
18819;BME280;9537;45.594;9.294;2023-04-28T04:12:26;99939.16;;;11.78;74.41
18819;BME280;9537;45.594;9.294;2023-04-28T04:13:33;99946.94;;;11.80;74.19
18819;BME280;9537;45.594;9.294;2023-04-28T04:14:39;99945.09;;;11.80;74.09
18819;BME280;9537;45.594;9.294;2023-04-28T04:15:48;99948.91;;;11.78;74.44
18819;BME280;9537;45.594;9.294;2023-04-28T04:16:55;99941.66;;;11.80;74.39
18819;BME280;9537;45.594;9.294;2023-04-28T04:18:02;99940.31;;;11.76;74.26
18819;BME280;9537;45.594;9.294;2023-04-28T04:19:08;99940.31;;;11.76;74.65
18819;BME280;9537;45.594;9.294;2023-04-28T04:20:15;99941.19;;;11.76;74.41
18819;BME280;9537;45.594;9.294;2023-04-28T04:21:21;99935.34;;;11.81;74.41
18819;BME280;9537;45.594;9.294;2023-04-28T04:22:28;99942.47;;;11.80;74.62
18819;BME280;9537;45.594;9.294;2023-04-28T04:23:29;99943.81;;;11.76;74.75
18819;BME280;9537;45.594;9.294;2023-04-28T04:24:36;99942.34;;;11.73;74.71
18819;BME280;9537;45.594;9.294;2023-04-28T04:25:42;99942.69;;;11.70;74.99
18819;BME280;9537;45.594;9.294;2023-04-28T04:26:49;99937.56;;;11.69;75.03
18819;BME280;9537;45.594;9.294;2023-04-28T04:27:50;99944.00;;;11.66;75.06
18819;BME280;9537;45.594;9.294;2023-04-28T04:28:57;99938.91;;;11.65;75.35
18819;BME280;9537;45.594;9.294;2023-04-28T04:30:04;99946.50;;;11.68;75.11
18819;BME280;9537;45.594;9.294;2023-04-28T04:31:08;99945.50;;;11.69;75.31
18819;BME280;9537;45.594;9.294;2023-04-28T04:32:14;99945.34;;;11.70;74.94
18819;BME280;9537;45.594;9.294;2023-04-28T04:33:16;99945.03;;;11.65;75.31
18819;BME280;9537;45.594;9.294;2023-04-28T04:34:22;99943.34;;;11.64;75.24
18819;BME280;9537;45.594;9.294;2023-04-28T04:35:30;99933.63;;;11.65;75.03
18819;BME280;9537;45.594;9.294;2023-04-28T04:36:36;99934.44;;;11.65;75.11
18819;BME280;9537;45.594;9.294;2023-04-28T04:37:43;99927.97;;;11.68;75.07
18819;BME280;9537;45.594;9.294;2023-04-28T04:38:44;99926.97;;;11.69;74.93
18819;BME280;9537;45.594;9.294;2023-04-28T04:39:51;99928.44;;;11.71;74.64
18819;BME280;9537;45.594;9.294;2023-04-28T04:40:57;99930.28;;;11.71;74.82
18819;BME280;9537;45.594;9.294;2023-04-28T04:42:04;99929.94;;;11.74;74.73
18819;BME280;9537;45.594;9.294;2023-04-28T04:43:10;99929.75;;;11.76;74.54
18819;BME280;9537;45.594;9.294;2023-04-28T04:44:17;99936.69;;;11.77;74.66
18819;BME280;9537;45.594;9.294;2023-04-28T04:45:23;99926.28;;;11.75;74.63
18819;BME280;9537;45.594;9.294;2023-04-28T04:46:32;99927.28;;;11.74;74.66
18819;BME280;9537;45.594;9.294;2023-04-28T04:47:38;99933.25;;;11.76;74.77
18819;BME280;9537;45.594;9.294;2023-04-28T04:48:45;99929.38;;;11.79;74.74
18819;BME280;9537;45.594;9.294;2023-04-28T04:49:51;99933.69;;;11.80;74.78
18819;BME280;9537;45.594;9.294;2023-04-28T04:50:59;99939.00;;;11.80;74.96
18819;BME280;9537;45.594;9.294;2023-04-28T04:52:05;99939.66;;;11.82;74.67
18819;BME280;9537;45.594;9.294;2023-04-28T04:53:12;99943.13;;;11.82;74.56
18819;BME280;9537;45.594;9.294;2023-04-28T04:54:18;99940.63;;;11.81;74.38
18819;BME280;9537;45.594;9.294;2023-04-28T04:55:25;99942.31;;;11.82;74.29
18819;BME280;9537;45.594;9.294;2023-04-28T04:56:31;99943.94;;;11.83;74.21
18819;BME280;9537;45.594;9.294;2023-04-28T04:57:38;99949.22;;;11.83;74.29
18819;BME280;9537;45.594;9.294;2023-04-28T04:58:44;99947.75;;;11.80;74.69
18819;BME280;9537;45.594;9.294;2023-04-28T04:59:52;99958.69;;;11.77;74.78
18819;BME280;9537;45.594;9.294;2023-04-28T05:00:58;99952.06;;;11.73;74.96
18819;BME280;9537;45.594;9.294;2023-04-28T05:02:02;99952.94;;;11.73;74.86
18819;BME280;9537;45.594;9.294;2023-04-28T05:03:08;99960.00;;;11.73;75.05
18819;BME280;9537;45.594;9.294;2023-04-28T05:04:16;99955.72;;;11.72;75.43
18819;BME280;9537;45.594;9.294;2023-04-28T05:05:22;99962.50;;;11.75;75.70
18819;BME280;9537;45.594;9.294;2023-04-28T05:06:29;99960.88;;;11.73;75.65
18819;BME280;9537;45.594;9.294;2023-04-28T05:07:36;99956.56;;;11.72;75.63
18819;BME280;9537;45.594;9.294;2023-04-28T05:08:43;99959.84;;;11.75;75.70
18819;BME280;9537;45.594;9.294;2023-04-28T05:09:49;99960.69;;;11.75;75.53
18819;BME280;9537;45.594;9.294;2023-04-28T05:10:56;99958.03;;;11.75;75.42
18819;BME280;9537;45.594;9.294;2023-04-28T05:12:04;99966.63;;;11.77;75.48
18819;BME280;9537;45.594;9.294;2023-04-28T05:13:10;99965.00;;;11.76;75.80
18819;BME280;9537;45.594;9.294;2023-04-28T05:14:13;99960.88;;;11.73;76.06
18819;BME280;9537;45.594;9.294;2023-04-28T05:15:19;99968.25;;;11.78;76.09
18819;BME280;9537;45.594;9.294;2023-04-28T05:16:25;99969.75;;;11.81;76.15
18819;BME280;9537;45.594;9.294;2023-04-28T05:17:34;99968.56;;;11.83;76.00
18819;BME280;9537;45.594;9.294;2023-04-28T05:18:40;99965.94;;;11.83;75.99
18819;BME280;9537;45.594;9.294;2023-04-28T05:19:47;99972.38;;;11.81;76.00
18819;BME280;9537;45.594;9.294;2023-04-28T05:20:52;99973.41;;;11.80;76.20
18819;BME280;9537;45.594;9.294;2023-04-28T05:21:59;99977.88;;;11.79;76.37
18819;BME280;9537;45.594;9.294;2023-04-28T05:23:06;99975.38;;;11.78;76.20
18819;BME280;9537;45.594;9.294;2023-04-28T05:24:14;99979.50;;;11.80;76.56
18819;BME280;9537;45.594;9.294;2023-04-28T05:25:20;99975.84;;;11.81;76.41
18819;BME280;9537;45.594;9.294;2023-04-28T05:26:27;99981.00;;;11.83;76.45
18819;BME280;9537;45.594;9.294;2023-04-28T05:27:33;99983.63;;;11.83;76.45
18819;BME280;9537;45.594;9.294;2023-04-28T05:28:38;99990.56;;;11.84;76.31
18819;BME280;9537;45.594;9.294;2023-04-28T05:29:44;99995.75;;;11.85;76.30
18819;BME280;9537;45.594;9.294;2023-04-28T05:30:51;99988.63;;;11.86;76.00
18819;BME280;9537;45.594;9.294;2023-04-28T05:31:57;99987.78;;;11.85;76.07
18819;BME280;9537;45.594;9.294;2023-04-28T05:33:05;99990.25;;;11.87;75.99
18819;BME280;9537;45.594;9.294;2023-04-28T05:34:11;99987.94;;;11.84;76.06
18819;BME280;9537;45.594;9.294;2023-04-28T05:35:18;99999.88;;;11.88;75.38
18819;BME280;9537;45.594;9.294;2023-04-28T05:36:24;99999.00;;;11.87;76.20
18819;BME280;9537;45.594;9.294;2023-04-28T05:37:32;100006.78;;;11.89;76.39
18819;BME280;9537;45.594;9.294;2023-04-28T05:38:42;100005.97;;;11.88;77.12
18819;BME280;9537;45.594;9.294;2023-04-28T05:39:48;100000.50;;;11.90;77.24
18819;BME280;9537;45.594;9.294;2023-04-28T05:40:55;99998.16;;;11.95;77.21
18819;BME280;9537;45.594;9.294;2023-04-28T05:42:01;100005.94;;;11.97;77.12
18819;BME280;9537;45.594;9.294;2023-04-28T05:43:09;100001.47;;;11.97;76.43
18819;BME280;9537;45.594;9.294;2023-04-28T05:44:15;100005.41;;;12.01;76.42
18819;BME280;9537;45.594;9.294;2023-04-28T05:45:22;100001.59;;;12.04;76.80
18819;BME280;9537;45.594;9.294;2023-04-28T05:46:28;100002.41;;;12.04;76.83
18819;BME280;9537;45.594;9.294;2023-04-28T05:47:36;100004.06;;;12.05;76.84
18819;BME280;9537;45.594;9.294;2023-04-28T05:48:44;100012.50;;;12.09;77.20
18819;BME280;9537;45.594;9.294;2023-04-28T05:49:51;100007.03;;;12.10;77.49
18819;BME280;9537;45.594;9.294;2023-04-28T05:50:57;100013.97;;;12.11;78.42
18819;BME280;9537;45.594;9.294;2023-04-28T05:52:05;100014.97;;;12.10;78.57
18819;BME280;9537;45.594;9.294;2023-04-28T05:53:11;100009.69;;;12.10;78.93
18819;BME280;9537;45.594;9.294;2023-04-28T05:54:13;100015.59;;;12.12;79.34
18819;BME280;9537;45.594;9.294;2023-04-28T05:55:20;100019.91;;;12.13;79.12
18819;BME280;9537;45.594;9.294;2023-04-28T05:56:26;100011.78;;;12.15;79.35
18819;BME280;9537;45.594;9.294;2023-04-28T05:57:34;100009.81;;;12.17;79.81